createdAt,value
2022-08-21T00:00:29.302Z,74.30
2022-08-21T00:03:31.511Z,74.40
2022-08-21T00:06:34.890Z,74.20
2022-08-21T00:09:37.797Z,74.10
2022-08-21T00:12:40.859Z,74.20
2022-08-21T00:15:43.399Z,74.20
2022-08-21T00:18:46.018Z,74.20
2022-08-21T00:21:48.291Z,74.20
2022-08-21T00:24:50.885Z,74.30
2022-08-21T00:27:53.812Z,74.20
2022-08-21T00:30:57.756Z,74.20
2022-08-21T00:34:00.857Z,74.20
2022-08-21T00:37:03.371Z,74.10
2022-08-21T00:40:07.594Z,74.20
2022-08-21T00:43:14.493Z,74.20
2022-08-21T00:46:17.014Z,74.10
2022-08-21T00:49:19.276Z,74.10
2022-08-21T00:52:26.203Z,74.00
2022-08-21T00:55:30.801Z,74.00
2022-08-21T00:58:37.020Z,74.00
2022-08-21T01:01:40.217Z,74.00
2022-08-21T01:04:42.525Z,73.90
2022-08-21T01:07:45.540Z,73.90
2022-08-21T01:10:48.991Z,73.90
2022-08-21T01:14:01.412Z,73.90
2022-08-21T01:17:04.997Z,73.90
2022-08-21T01:20:09.983Z,73.90
2022-08-21T01:23:12.363Z,73.90
2022-08-21T01:26:17.280Z,73.80
2022-08-21T01:29:34.355Z,73.80
2022-08-21T01:32:36.648Z,73.90
2022-08-21T01:35:39.591Z,73.90
2022-08-21T01:38:41.801Z,73.80
2022-08-21T01:41:44.257Z,73.80
2022-08-21T01:44:46.463Z,73.80
2022-08-21T01:47:48.785Z,73.90
2022-08-21T01:50:52.848Z,73.80
2022-08-21T01:53:59.321Z,73.70
2022-08-21T01:57:01.880Z,73.60
2022-08-21T02:00:07.719Z,73.60
2022-08-21T02:03:14.162Z,73.70
2022-08-21T02:06:28.919Z,73.70
2022-08-21T02:09:31.324Z,73.70
2022-08-21T02:12:33.603Z,73.70
2022-08-21T02:15:37.027Z,73.60
2022-08-21T02:18:39.676Z,73.70
2022-08-21T02:21:42.594Z,73.70
2022-08-21T02:24:53.851Z,73.80
2022-08-21T02:27:58.442Z,73.70
2022-08-21T02:31:01.129Z,73.80
2022-08-21T02:34:03.686Z,73.80
2022-08-21T02:37:06.195Z,73.80
2022-08-21T02:40:10.564Z,73.70
2022-08-21T02:43:13.280Z,73.80
2022-08-21T02:46:18.382Z,73.70
2022-08-21T02:49:20.508Z,73.70
2022-08-21T02:52:22.981Z,73.70
2022-08-21T02:55:27.537Z,73.80
2022-08-21T02:58:35.395Z,73.80
2022-08-21T03:01:38.598Z,73.80
2022-08-21T03:04:46.016Z,73.80
2022-08-21T03:07:49.548Z,73.80
2022-08-21T03:10:53.978Z,73.80
2022-08-21T03:13:56.236Z,73.80
2022-08-21T03:16:58.487Z,73.80
2022-08-21T03:20:01.162Z,73.70
2022-08-21T03:23:12.727Z,73.70
2022-08-21T03:26:16.544Z,73.70
2022-08-21T03:29:18.966Z,73.70
2022-08-21T03:32:21.400Z,73.60
2022-08-21T03:35:23.622Z,73.60
2022-08-21T03:38:26.754Z,73.50
2022-08-21T03:41:29.156Z,73.50
2022-08-21T03:44:31.773Z,73.50
2022-08-21T03:47:34.260Z,73.50
2022-08-21T03:50:40.630Z,73.50
2022-08-21T03:53:43.458Z,73.50
2022-08-21T03:56:45.757Z,73.40
2022-08-21T03:59:48.275Z,73.30
2022-08-21T04:02:50.628Z,73.40
2022-08-21T04:05:53.262Z,73.30
2022-08-21T04:08:56.148Z,73.40
2022-08-21T04:12:00.406Z,73.40
2022-08-21T04:15:03.092Z,73.30
2022-08-21T04:18:06.690Z,73.20
2022-08-21T04:21:11.385Z,73.30
2022-08-21T04:24:13.608Z,73.20
2022-08-21T04:27:15.791Z,73.10
2022-08-21T04:30:18.389Z,73.10
2022-08-21T04:33:22.178Z,73.10
2022-08-21T04:36:24.602Z,73.00
2022-08-21T04:39:29.651Z,72.90
2022-08-21T04:42:32.150Z,72.90
2022-08-21T04:45:38.230Z,72.80
2022-08-21T04:48:41.595Z,72.80
2022-08-21T04:51:43.930Z,72.80
2022-08-21T04:54:51.956Z,72.60
2022-08-21T04:57:58.014Z,72.70
2022-08-21T05:01:02.351Z,72.70
2022-08-21T05:04:06.691Z,72.70
2022-08-21T05:07:15.653Z,72.70
2022-08-21T05:10:21.675Z,72.70
2022-08-21T05:13:23.897Z,72.60
2022-08-21T05:16:36.930Z,72.60
2022-08-21T05:19:39.753Z,72.60
2022-08-21T05:22:42.460Z,72.70
2022-08-21T05:25:44.775Z,72.60
2022-08-21T05:28:48.263Z,72.50
2022-08-21T05:31:50.565Z,72.50
2022-08-21T05:34:52.749Z,72.60
2022-08-21T05:37:55.689Z,72.60
2022-08-21T05:40:57.958Z,72.60
2022-08-21T05:44:00.187Z,72.60
2022-08-21T05:47:10.889Z,72.60
2022-08-21T05:50:13.478Z,72.70
2022-08-21T05:53:17.195Z,72.60
2022-08-21T05:56:19.428Z,72.80
2022-08-21T05:59:21.726Z,72.80
2022-08-21T06:02:23.917Z,72.90
2022-08-21T06:05:36.788Z,72.90
2022-08-21T06:08:40.287Z,72.90
2022-08-21T06:11:42.443Z,72.90
2022-08-21T06:14:44.623Z,72.90
2022-08-21T06:17:46.833Z,73.00
2022-08-21T06:20:48.987Z,73.00
2022-08-21T06:23:51.131Z,73.00
2022-08-21T06:26:53.989Z,73.00
2022-08-21T06:29:58.452Z,73.10
2022-08-21T06:33:01.135Z,73.10
2022-08-21T06:36:04.251Z,73.30
2022-08-21T06:39:16.305Z,73.10
2022-08-21T06:42:28.387Z,73.10
2022-08-21T06:45:32.528Z,73.00
2022-08-21T06:48:35.296Z,72.90
2022-08-21T06:51:37.560Z,72.90
2022-08-21T06:54:40.781Z,73.00
2022-08-21T06:57:43.043Z,73.00
2022-08-21T07:01:00.146Z,73.00
2022-08-21T07:04:03.586Z,73.10
2022-08-21T07:07:06.314Z,73.00
2022-08-21T07:10:08.990Z,73.10
2022-08-21T07:13:17.832Z,73.10
2022-08-21T07:16:21.395Z,73.00
2022-08-21T07:19:23.602Z,73.10
2022-08-21T07:22:28.600Z,73.00
2022-08-21T07:25:31.335Z,73.00
2022-08-21T07:28:34.146Z,73.00
2022-08-21T07:31:36.342Z,72.80
2022-08-21T07:34:41.779Z,72.80
2022-08-21T07:37:44.008Z,72.90
2022-08-21T07:40:47.589Z,72.80
2022-08-21T07:43:52.709Z,72.80
2022-08-21T07:46:55.192Z,72.80
2022-08-21T07:49:57.437Z,72.60
2022-08-21T07:52:59.798Z,72.50
2022-08-21T07:56:02.747Z,72.50
2022-08-21T07:59:05.568Z,72.40
2022-08-21T08:02:07.819Z,72.30
2022-08-21T08:05:12.590Z,72.30
2022-08-21T08:08:14.800Z,72.10
2022-08-21T08:11:17.604Z,72.00
2022-08-21T08:14:19.961Z,71.80
2022-08-21T08:17:29.056Z,71.70
2022-08-21T08:20:31.331Z,71.50
2022-08-21T08:23:34.401Z,71.40
2022-08-21T08:26:36.628Z,71.10
2022-08-21T08:29:39.015Z,71.00
2022-08-21T08:32:42.151Z,70.90
2022-08-21T08:35:47.281Z,70.70
2022-08-21T08:38:50.297Z,70.90
2022-08-21T08:42:01.059Z,70.40
2022-08-21T08:45:05.806Z,70.50
2022-08-21T08:48:14.434Z,70.60
2022-08-21T08:51:25.418Z,70.60
2022-08-21T08:54:36.719Z,70.40
2022-08-21T08:57:41.058Z,70.60
2022-08-21T09:00:43.469Z,70.20
2022-08-21T09:03:51.018Z,70.20
2022-08-21T09:07:24.271Z,70.20
2022-08-21T09:10:50.917Z,70.50
2022-08-21T09:14:05.580Z,70.50
2022-08-21T09:17:38.028Z,70.30
2022-08-21T09:21:17.356Z,70.20
2022-08-21T09:24:58.695Z,70.20
2022-08-21T09:28:00.916Z,69.90
2022-08-21T09:31:31.589Z,69.50
2022-08-21T09:34:33.961Z,69.80
2022-08-21T09:37:56.378Z,69.10
2022-08-21T09:41:11.047Z,69.20
2022-08-21T09:44:13.309Z,69.10
2022-08-21T09:47:23.806Z,69.10
2022-08-21T09:50:30.211Z,68.60
2022-08-21T09:53:35.877Z,68.60
2022-08-21T09:56:59.865Z,68.50
2022-08-21T10:00:33.552Z,68.50
2022-08-21T10:03:36.121Z,68.30
2022-08-21T10:06:39.091Z,68.10
2022-08-21T10:09:42.768Z,68.00
2022-08-21T10:13:01.452Z,67.90
2022-08-21T10:16:15.433Z,68.30
2022-08-21T10:19:35.469Z,68.10
2022-08-21T10:23:07.913Z,68.00
2022-08-21T10:26:47.775Z,68.00
2022-08-21T10:29:52.839Z,68.00
2022-08-21T10:33:29.206Z,68.00
2022-08-21T10:36:37.974Z,67.80
2022-08-21T10:39:51.582Z,67.80
2022-08-21T10:43:19.023Z,67.90
2022-08-21T10:46:51.881Z,67.80
2022-08-21T10:50:16.025Z,67.90
2022-08-21T10:53:27.093Z,67.80
2022-08-21T10:56:36.782Z,67.80
2022-08-21T10:59:49.183Z,67.90
2022-08-21T11:03:13.671Z,67.70
2022-08-21T11:06:24.614Z,67.90
2022-08-21T11:09:28.470Z,67.60
2022-08-21T11:12:46.205Z,67.50
2022-08-21T11:16:12.374Z,67.60
2022-08-21T11:19:34.535Z,67.60
2022-08-21T11:23:00.062Z,67.70
2022-08-21T11:26:35.708Z,67.80
2022-08-21T11:29:40.530Z,67.80
2022-08-21T11:32:45.492Z,67.60
2022-08-21T11:36:19.559Z,67.80
2022-08-21T11:39:40.375Z,67.90
2022-08-21T11:42:56.444Z,67.80
2022-08-21T11:46:14.097Z,67.70
2022-08-21T11:50:03.842Z,67.80
2022-08-21T11:53:10.078Z,67.90
2022-08-21T11:56:52.201Z,67.60
2022-08-21T12:00:08.734Z,67.90
2022-08-21T12:03:24.103Z,67.80
2022-08-21T12:06:37.673Z,67.70
2022-08-21T12:09:40.017Z,67.40
2022-08-21T12:12:45.199Z,67.40
2022-08-21T12:15:47.338Z,68.20
2022-08-21T12:18:49.517Z,67.50
2022-08-21T12:21:59.037Z,67.50
2022-08-21T12:25:08.464Z,67.30
2022-08-21T12:28:16.279Z,67.20
2022-08-21T12:31:21.122Z,67.10
2022-08-21T12:34:27.468Z,67.20
2022-08-21T12:37:48.671Z,66.80
2022-08-21T12:41:00.513Z,67.20
2022-08-21T12:44:10.098Z,67.10
2022-08-21T12:47:34.314Z,67.20
2022-08-21T12:50:48.759Z,67.40
2022-08-21T12:53:54.565Z,67.10
2022-08-21T12:56:59.117Z,67.10
2022-08-21T13:00:06.546Z,67.00
2022-08-21T13:03:09.889Z,67.00
2022-08-21T13:06:18.293Z,66.90
2022-08-21T13:09:27.170Z,67.10
2022-08-21T13:12:32.462Z,66.90
2022-08-21T13:15:38.458Z,67.10
2022-08-21T13:18:57.177Z,67.00
2022-08-21T13:22:00.760Z,67.10
2022-08-21T13:25:07.218Z,66.90
2022-08-21T13:28:12.783Z,66.80
2022-08-21T13:31:22.240Z,66.70
2022-08-21T13:34:30.448Z,66.70
2022-08-21T13:37:32.637Z,66.50
2022-08-21T13:40:54.087Z,66.30
2022-08-21T13:44:02.517Z,66.30
2022-08-21T13:47:06.534Z,66.40
2022-08-21T13:50:09.895Z,66.20
2022-08-21T13:53:30.399Z,66.00
2022-08-21T13:56:54.618Z,66.00
2022-08-21T14:00:17.452Z,66.00
2022-08-21T14:03:42.461Z,65.90
2022-08-21T14:06:44.748Z,66.00
2022-08-21T14:09:48.710Z,65.60
2022-08-21T14:12:59.713Z,65.30
2022-08-21T14:16:04.477Z,65.30
2022-08-21T14:19:06.678Z,65.30
2022-08-21T14:22:44.569Z,65.30
2022-08-21T14:25:47.127Z,65.40
2022-08-21T14:28:49.277Z,65.10
2022-08-21T14:32:00.835Z,65.00
2022-08-21T14:35:03.190Z,65.00
2022-08-21T14:38:23.652Z,64.90
2022-08-21T14:41:29.180Z,64.90
2022-08-21T14:44:33.087Z,64.60
2022-08-21T14:47:35.392Z,64.60
2022-08-21T14:50:37.717Z,64.40
2022-08-21T14:53:40.369Z,64.40
2022-08-21T14:56:42.642Z,64.20
2022-08-21T14:59:44.919Z,64.30
2022-08-21T15:02:47.484Z,64.20
2022-08-21T15:05:52.246Z,64.00
2022-08-21T15:08:54.426Z,63.80
2022-08-21T15:11:59.559Z,64.00
2022-08-21T15:15:01.929Z,63.80
2022-08-21T15:18:05.717Z,63.90
2022-08-21T15:21:07.957Z,63.70
2022-08-21T15:24:10.334Z,63.90
2022-08-21T15:27:14.550Z,63.50
2022-08-21T15:30:19.359Z,63.50
2022-08-21T15:33:22.590Z,63.60
2022-08-21T15:36:24.870Z,63.40
2022-08-21T15:39:31.233Z,63.50
2022-08-21T15:42:35.075Z,63.30
2022-08-21T15:45:37.285Z,63.30
2022-08-21T15:48:39.513Z,63.30
2022-08-21T15:51:43.498Z,63.00
2022-08-21T15:54:46.429Z,63.00
2022-08-21T15:57:57.309Z,62.70
2022-08-21T16:01:02.491Z,63.00
2022-08-21T16:04:05.812Z,63.10
2022-08-21T16:07:09.747Z,62.80
2022-08-21T16:10:13.978Z,62.90
2022-08-21T16:13:29.168Z,62.80
2022-08-21T16:16:34.500Z,62.90
2022-08-21T16:19:38.175Z,62.60
2022-08-21T16:22:44.787Z,62.90
2022-08-21T16:25:47.739Z,62.80
2022-08-21T16:28:52.365Z,62.60
2022-08-21T16:31:55.188Z,62.80
2022-08-21T16:34:57.397Z,62.70
2022-08-21T16:37:59.552Z,62.80
2022-08-21T16:41:01.827Z,62.70
2022-08-21T16:44:05.942Z,62.60
2022-08-21T16:47:08.427Z,62.70
2022-08-21T16:50:22.527Z,62.80
2022-08-21T16:53:24.898Z,62.80
2022-08-21T16:56:27.163Z,62.50
2022-08-21T16:59:29.513Z,62.80
2022-08-21T17:02:40.865Z,62.80
2022-08-21T17:05:44.624Z,62.90
2022-08-21T17:08:47.109Z,62.70
2022-08-21T17:11:54.853Z,62.90
2022-08-21T17:15:08.643Z,62.90
2022-08-21T17:18:18.208Z,62.90
2022-08-21T17:21:20.409Z,62.90
2022-08-21T17:24:22.944Z,62.90
2022-08-21T17:27:28.264Z,63.10
2022-08-21T17:30:31.288Z,63.00
2022-08-21T17:33:39.706Z,63.20
2022-08-21T17:36:41.955Z,63.30
2022-08-21T17:39:44.256Z,63.30
2022-08-21T17:42:48.474Z,63.50
2022-08-21T17:45:50.831Z,63.60
2022-08-21T17:48:53.306Z,63.80
2022-08-21T17:51:55.555Z,63.80
2022-08-21T17:54:57.774Z,63.90
2022-08-21T17:58:02.279Z,64.10
2022-08-21T18:01:05.887Z,64.40
2022-08-21T18:04:09.014Z,64.70
2022-08-21T18:07:11.294Z,64.80
2022-08-21T18:10:17.964Z,65.10
2022-08-21T18:13:27.212Z,65.20
2022-08-21T18:16:32.276Z,65.40
2022-08-21T18:19:34.569Z,65.60
2022-08-21T18:22:50.349Z,65.80
2022-08-21T18:25:56.782Z,66.00
2022-08-21T18:29:01.626Z,66.20
2022-08-21T18:32:05.990Z,66.30
2022-08-21T18:35:28.207Z,66.20
2022-08-21T18:38:35.917Z,66.20
2022-08-21T18:41:38.210Z,66.20
2022-08-21T18:44:44.055Z,66.30
2022-08-21T18:47:50.008Z,66.30
2022-08-21T18:50:52.561Z,66.30
2022-08-21T18:53:55.032Z,66.20
2022-08-21T18:56:59.202Z,66.20
2022-08-21T19:00:05.832Z,66.20
2022-08-21T19:03:10.729Z,66.20
2022-08-21T19:06:14.384Z,66.20
2022-08-21T19:09:17.242Z,66.20
2022-08-21T19:12:25.061Z,66.20
2022-08-21T19:15:32.231Z,66.20
2022-08-21T19:18:39.191Z,66.10
2022-08-21T19:21:42.196Z,66.20
2022-08-21T19:24:49.879Z,66.30
2022-08-21T19:27:53.138Z,66.20
2022-08-21T19:31:02.041Z,66.80
2022-08-21T19:34:18.447Z,66.00
2022-08-21T19:37:20.735Z,65.90
2022-08-21T19:40:23.170Z,65.80
2022-08-21T19:43:25.671Z,65.70
2022-08-21T19:46:37.064Z,65.80
2022-08-21T19:49:42.075Z,65.70
2022-08-21T19:52:58.621Z,65.60
2022-08-21T19:56:01.103Z,65.60
2022-08-21T19:59:09.441Z,65.60
2022-08-21T20:02:14.551Z,65.60
2022-08-21T20:08:39.293Z,65.60
2022-08-21T20:11:46.040Z,65.60
2022-08-21T20:14:49.849Z,65.60
2022-08-21T20:17:52.185Z,65.60
2022-08-21T20:20:55.221Z,65.60
2022-08-21T20:23:57.768Z,65.60
2022-08-21T20:30:28.298Z,65.80
2022-08-21T20:33:30.513Z,65.90
2022-08-21T20:36:32.812Z,66.00
2022-08-21T20:39:36.963Z,66.00
2022-08-21T20:42:41.535Z,66.10
2022-08-21T20:45:47.488Z,66.20
2022-08-21T20:48:50.057Z,66.20
2022-08-21T20:51:53.481Z,66.30
2022-08-21T20:55:03.917Z,66.50
2022-08-21T20:58:09.356Z,66.50
2022-08-21T21:01:14.897Z,66.50
2022-08-21T21:04:44.946Z,66.60
2022-08-21T21:08:12.329Z,66.60
2022-08-21T21:11:21.302Z,66.70
2022-08-21T21:14:46.216Z,66.80
2022-08-21T21:18:10.580Z,67.00
2022-08-21T21:21:26.181Z,66.90
2022-08-21T21:24:52.448Z,66.90
2022-08-21T21:28:04.331Z,67.10
2022-08-21T21:31:07.004Z,67.20
2022-08-21T21:34:16.909Z,67.20
2022-08-21T21:37:25.907Z,67.30
2022-08-21T21:40:56.745Z,67.40
2022-08-21T21:44:08.711Z,67.40
2022-08-21T21:47:30.395Z,67.80
2022-08-21T21:51:04.976Z,67.60
2022-08-21T21:54:37.351Z,67.50
2022-08-21T21:58:34.961Z,67.40
2022-08-21T22:01:43.857Z,67.50
2022-08-21T22:04:55.480Z,67.60
2022-08-21T22:08:02.983Z,67.70
2022-08-21T22:11:38.836Z,67.60
2022-08-21T22:14:42.473Z,67.60
2022-08-21T22:17:54.569Z,67.70
2022-08-21T22:21:05.455Z,67.80
2022-08-21T22:24:21.297Z,67.80
2022-08-21T22:27:30.972Z,67.90
2022-08-21T22:30:46.560Z,67.80
2022-08-21T22:34:02.566Z,67.80
2022-08-21T22:37:08.889Z,67.80
2022-08-21T22:40:15.837Z,67.80
2022-08-21T22:43:27.499Z,67.80
2022-08-21T22:47:06.095Z,67.80
2022-08-21T22:50:26.238Z,67.80
2022-08-21T22:53:31.818Z,67.70
2022-08-21T22:56:45.383Z,67.70
2022-08-21T22:59:57.508Z,67.80
2022-08-21T23:03:03.509Z,67.80
2022-08-21T23:06:27.852Z,67.80
2022-08-21T23:09:46.248Z,67.80
2022-08-21T23:12:54.278Z,67.80
2022-08-21T23:16:17.938Z,67.90
2022-08-21T23:19:38.929Z,67.80
2022-08-21T23:23:01.632Z,67.90
2022-08-21T23:26:25.294Z,67.90
2022-08-21T23:29:51.737Z,67.80
2022-08-21T23:33:22.522Z,67.80
2022-08-21T23:37:02.781Z,67.90
2022-08-21T23:40:32.631Z,67.90
2022-08-21T23:44:04.957Z,68.00
2022-08-21T23:47:43.523Z,67.90
2022-08-21T23:50:50.505Z,68.00
2022-08-21T23:53:55.669Z,68.00
2022-08-21T23:57:12.963Z,68.00
